Time;durP1;ratioP1;P1;durP2;ratioP2;P2;SDS_P1;SDS_P2;PMS_P1;PMS_P2;Temp;Humidity;BMP_temperature;BMP_pressure;BME280_temperature;BME280_humidity;BME280_pressure;Samples;Min_cycle;Max_cycle;Signal;HPM_P1;HPM_P2
2023/08/06 00:00:38;;;;;;;8.57;6.85;;;16.50;93.90;;;;;;5093761;28;20054;-69
2023/08/06 00:03:04;;;;;;;8.73;6.45;;;16.50;94.00;;;;;;5093631;28;20052;-70
2023/08/06 00:05:29;;;;;;;8.20;6.20;;;16.50;94.00;;;;;;5093638;28;20031;-69
2023/08/06 00:07:55;;;;;;;7.97;6.15;;;16.50;94.00;;;;;;5093609;28;20032;-70
2023/08/06 00:10:20;;;;;;;7.75;6.57;;;16.50;94.00;;;;;;5093623;28;20066;-69
2023/08/06 00:12:46;;;;;;;8.57;6.43;;;16.50;94.00;;;;;;5076935;28;20031;-69
2023/08/06 00:15:12;;;;;;;5.95;4.90;;;16.50;94.00;;;;;;5072981;28;20556;-69
2023/08/06 00:17:37;;;;;;;6.55;4.97;;;16.50;94.00;;;;;;5073062;28;20021;-69
2023/08/06 00:20:06;;;;;;;7.40;6.45;;;16.60;93.90;;;;;;5073075;28;20078;-69
2023/08/06 00:22:32;;;;;;;7.05;5.40;;;16.60;93.70;;;;;;5073199;28;20047;-70
2023/08/06 00:24:58;;;;;;;7.53;6.18;;;16.60;93.70;;;;;;5072846;28;20113;-70
2023/08/06 00:27:23;;;;;;;7.35;6.28;;;16.60;93.80;;;;;;5073188;28;20107;-70
2023/08/06 00:29:49;;;;;;;8.25;6.75;;;16.60;93.90;;;;;;5073072;28;20024;-70
2023/08/06 00:32:14;;;;;;;8.27;6.47;;;16.50;93.90;;;;;;5071748;28;20025;-70
2023/08/06 00:34:40;;;;;;;9.20;6.00;;;16.50;94.00;;;;;;5073037;28;20020;-70
2023/08/06 00:37:06;;;;;;;7.93;6.10;;;16.50;94.10;;;;;;5072914;28;20025;-70
2023/08/06 00:39:31;;;;;;;8.68;6.32;;;16.50;94.20;;;;;;5072899;28;20016;-70
2023/08/06 00:41:58;;;;;;;7.00;6.25;;;16.40;94.30;;;;;;5072900;28;20222;-70
2023/08/06 00:44:23;;;;;;;8.20;6.20;;;16.40;94.40;;;;;;5073169;28;20031;-68
2023/08/06 00:46:50;;;;;;;7.47;6.68;;;16.40;94.40;;;;;;5071185;28;20025;-68
2023/08/06 00:49:15;;;;;;;6.20;5.50;;;16.40;94.50;;;;;;5072692;28;20043;-68
2023/08/06 00:51:41;;;;;;;6.95;5.70;;;16.40;94.60;;;;;;5072536;28;20020;-68
2023/08/06 00:54:08;;;;;;;8.00;6.32;;;16.50;94.50;;;;;;5072642;28;20028;-69
2023/08/06 00:56:35;;;;;;;7.85;5.57;;;16.40;94.60;;;;;;5072302;28;20477;-68
2023/08/06 00:59:01;;;;;;;7.00;5.75;;;16.40;94.50;;;;;;5072524;28;20025;-68
2023/08/06 01:01:27;;;;;;;7.03;6.32;;;16.50;94.50;;;;;;5072370;28;20085;-68
2023/08/06 01:03:53;;;;;;;7.25;6.47;;;16.40;94.50;;;;;;5070989;28;20111;-68
2023/08/06 01:06:32;;;;;;;7.65;6.85;;;16.40;94.70;;;;;;5072399;28;20020;-68
2023/08/06 01:09:03;;;;;;;9.70;7.10;;;16.40;94.70;;;;;;5072306;28;20032;-68
2023/08/06 01:11:32;;;;;;;;;;;16.40;94.90;;;;;;5073414;28;20028;-70
2023/08/06 01:14:31;;;;;;;7.95;6.20;;;16.30;94.90;;;;;;5072073;28;19912;-69
2023/08/06 01:16:58;;;;;;;9.05;6.00;;;16.30;95.10;;;;;;5070822;28;20032;-69
2023/08/06 01:19:25;;;;;;;6.68;5.00;;;16.20;95.20;;;;;;5072177;28;20463;-71
2023/08/06 01:21:50;;;;;;;6.18;5.47;;;16.30;95.30;;;;;;5072134;28;20382;-69
2023/08/06 01:24:16;;;;;;;8.02;6.75;;;16.30;95.20;;;;;;5072148;28;20027;-69
2023/08/06 01:26:43;;;;;;;7.53;5.35;;;16.30;95.20;;;;;;5070954;28;20025;-69
2023/08/06 01:29:19;;;;;;;6.30;4.88;;;16.30;95.20;;;;;;5071084;28;20027;-69
2023/08/06 01:31:48;;;;;;;5.47;4.88;;;16.30;95.30;;;;;;5070944;28;20059;-69
2023/08/06 01:34:20;;;;;;;4.40;3.97;;;16.30;95.40;;;;;;5071981;28;20047;-69
2023/08/06 01:36:46;;;;;;;5.53;4.97;;;16.30;95.40;;;;;;5071721;28;20035;-69
2023/08/06 01:39:12;;;;;;;5.53;4.50;;;16.30;95.50;;;;;;5071647;28;20020;-69
2023/08/06 01:41:37;;;;;;;6.43;5.40;;;16.20;95.60;;;;;;5071810;28;20032;-69
2023/08/06 01:44:03;;;;;;;6.03;5.22;;;16.20;95.70;;;;;;5071672;28;20285;-69
2023/08/06 01:46:28;;;;;;;5.45;4.82;;;16.20;95.80;;;;;;5071464;28;20031;-69
2023/08/06 01:48:54;;;;;;;5.35;4.68;;;16.20;95.70;;;;;;5071511;28;20028;-69
2023/08/06 01:51:20;;;;;;;6.10;5.47;;;16.30;95.70;;;;;;5071392;28;20028;-69
2023/08/06 01:53:45;;;;;;;6.32;5.40;;;16.30;95.70;;;;;;5070300;28;20036;-69
2023/08/06 01:56:11;;;;;;;7.88;6.82;;;16.30;95.60;;;;;;5071443;28;20471;-69
2023/08/06 01:58:37;;;;;;;7.15;5.97;;;16.30;95.60;;;;;;5071591;28;20020;-69
2023/08/06 02:01:02;;;;;;;9.43;8.30;;;16.30;95.60;;;;;;5071248;28;20028;-69
2023/08/06 02:03:28;;;;;;;10.50;9.23;;;16.30;95.70;;;;;;5071231;28;20029;-69
2023/08/06 02:05:54;;;;;;;9.75;8.75;;;16.30;95.80;;;;;;5071098;28;20032;-69
2023/08/06 02:08:19;;;;;;;10.77;9.00;;;16.20;95.90;;;;;;5071361;28;20025;-69
2023/08/06 02:10:45;;;;;;;8.85;7.95;;;16.20;95.90;;;;;;5071122;28;20022;-70
2023/08/06 02:13:10;;;;;;;11.20;9.88;;;16.30;96.00;;;;;;5070857;28;20028;-69
2023/08/06 02:15:42;;;;;;;10.50;9.40;;;16.30;95.90;;;;;;5070438;28;20025;-69
2023/08/06 02:18:08;;;;;;;12.10;10.75;;;16.30;96.00;;;;;;5071407;28;20044;-69
2023/08/06 02:20:33;;;;;;;12.02;9.85;;;16.20;96.10;;;;;;5070961;28;20052;-69
2023/08/06 02:22:59;;;;;;;10.25;8.63;;;16.20;96.40;;;;;;5070763;28;20025;-69
2023/08/06 02:25:24;;;;;;;12.60;11.27;;;16.20;96.50;;;;;;5069539;28;20035;-69
2023/08/06 02:27:50;;;;;;;10.98;9.50;;;16.20;96.50;;;;;;5070613;28;20209;-69
2023/08/06 02:30:15;;;;;;;12.32;9.93;;;16.20;96.40;;;;;;5069595;28;20109;-69
2023/08/06 02:32:41;;;;;;;10.15;9.07;;;16.30;96.40;;;;;;5070610;28;20268;-69
2023/08/06 02:35:07;;;;;;;10.77;9.68;;;16.30;96.40;;;;;;5070412;28;20021;-69
2023/08/06 02:37:35;;;;;;;9.13;7.82;;;16.30;96.40;;;;;;5070834;28;20566;-68
2023/08/06 02:40:02;;;;;;;10.35;8.27;;;16.30;96.40;;;;;;5070447;28;20070;-69
2023/08/06 02:42:27;;;;;;;8.40;7.30;;;16.30;96.30;;;;;;5070510;28;20095;-68
2023/08/06 02:44:56;;;;;;;9.75;7.90;;;16.40;96.20;;;;;;5070334;28;20112;-69
2023/08/06 02:47:22;;;;;;;7.88;7.00;;;16.40;96.20;;;;;;5070520;28;20024;-69
2023/08/06 02:49:47;;;;;;;8.25;7.05;;;16.40;96.10;;;;;;5070514;28;20078;-69
2023/08/06 02:52:13;;;;;;;7.80;5.95;;;16.40;96.10;;;;;;5070486;28;20051;-69
2023/08/06 02:54:38;;;;;;;11.95;7.93;;;16.50;96.10;;;;;;5070218;28;20027;-69
2023/08/06 02:57:05;;;;;;;16.73;9.25;;;16.50;96.00;;;;;;5070229;28;20059;-69
2023/08/06 02:59:31;;;;;;;10.45;7.28;;;16.50;95.90;;;;;;5070241;28;20191;-69
2023/08/06 03:01:56;;;;;;;7.38;6.00;;;16.50;95.90;;;;;;5069029;28;20055;-69
2023/08/06 03:04:22;;;;;;;6.93;5.65;;;16.50;95.80;;;;;;5069850;28;20048;-69
2023/08/06 03:06:50;;;;;;;6.35;5.10;;;16.50;95.80;;;;;;5070135;28;20036;-69
2023/08/06 03:09:16;;;;;;;4.85;4.20;;;16.50;95.80;;;;;;5070584;28;20034;-69
2023/08/06 03:11:41;;;;;;;5.93;4.70;;;16.50;95.80;;;;;;5069992;28;20425;-69
2023/08/06 03:14:07;;;;;;;5.13;4.05;;;16.40;95.80;;;;;;5070187;28;20028;-69
2023/08/06 03:16:32;;;;;;;6.00;4.28;;;16.50;95.80;;;;;;5069874;28;20063;-69
2023/08/06 03:18:58;;;;;;;5.78;4.18;;;16.50;95.80;;;;;;5070151;28;20383;-69
2023/08/06 03:21:24;;;;;;;4.47;3.85;;;16.40;95.80;;;;;;5070155;28;20016;-69
2023/08/06 03:23:49;;;;;;;8.25;5.93;;;16.40;95.80;;;;;;5068749;28;20032;-69
2023/08/06 03:26:15;;;;;;;6.40;4.45;;;16.40;95.80;;;;;;5070067;28;20092;-69
2023/08/06 03:28:40;;;;;;;7.45;4.50;;;16.40;95.80;;;;;;5072628;28;20025;-69
2023/08/06 03:31:06;;;;;;;5.47;4.88;;;16.40;96.00;;;;;;5072765;28;20621;-69
2023/08/06 03:33:31;;;;;;;6.97;5.43;;;16.40;95.80;;;;;;5074062;28;20055;-69
2023/08/06 03:35:57;;;;;;;5.22;4.40;;;16.30;95.90;;;;;;5074211;28;20029;-69
2023/08/06 03:38:23;;;;;;;5.22;4.10;;;16.30;96.00;;;;;;5073943;28;20093;-69
2023/08/06 03:40:49;;;;;;;5.22;4.65;;;16.30;95.90;;;;;;5074421;28;20032;-69
2023/08/06 03:43:15;;;;;;;6.22;4.97;;;16.30;95.90;;;;;;5074042;28;20024;-69
2023/08/06 03:45:41;;;;;;;6.13;4.90;;;16.30;96.00;;;;;;5073896;28;20399;-69
2023/08/06 03:48:07;;;;;;;6.85;5.30;;;16.30;96.00;;;;;;5074049;28;20036;-69
2023/08/06 03:50:32;;;;;;;6.30;4.72;;;16.30;96.00;;;;;;5074037;28;20036;-69
2023/08/06 03:52:58;;;;;;;5.40;4.57;;;16.40;96.00;;;;;;5074348;28;20035;-69
2023/08/06 03:55:23;;;;;;;6.18;5.10;;;16.50;95.80;;;;;;5074158;28;20054;-69
2023/08/06 03:57:49;;;;;;;5.18;4.28;;;16.60;95.70;;;;;;5074457;28;20032;-69
2023/08/06 04:00:15;;;;;;;5.68;4.25;;;16.60;95.50;;;;;;5074154;28;20050;-69
2023/08/06 04:02:40;;;;;;;5.35;4.80;;;16.70;95.30;;;;;;5074157;28;20024;-70
2023/08/06 04:05:06;;;;;;;6.78;5.18;;;16.70;95.20;;;;;;5073630;28;20023;-69
2023/08/06 04:07:32;;;;;;;5.55;4.60;;;16.70;95.10;;;;;;5073540;28;20021;-70
2023/08/06 04:10:00;;;;;;;6.90;4.85;;;16.80;95.10;;;;;;5073434;28;20017;-70
2023/08/06 04:12:26;;;;;;;6.40;5.18;;;16.80;95.00;;;;;;5072325;28;20663;-70
2023/08/06 04:14:52;;;;;;;5.70;4.93;;;16.80;95.00;;;;;;5073285;28;20526;-69
2023/08/06 04:17:21;;;;;;;7.47;5.50;;;16.80;94.90;;;;;;5073084;28;20031;-70
2023/08/06 04:19:50;;;;;;;7.22;5.85;;;16.70;95.00;;;;;;5073267;28;20024;-69
2023/08/06 04:22:16;;;;;;;8.38;6.97;;;16.70;95.10;;;;;;5073223;28;20047;-69
2023/08/06 04:24:43;;;;;;;8.02;5.82;;;16.60;95.10;;;;;;5072955;28;20056;-70
2023/08/06 04:27:09;;;;;;;8.48;6.40;;;16.60;95.20;;;;;;5073064;28;20036;-69
2023/08/06 04:29:34;;;;;;;8.55;6.75;;;16.60;95.20;;;;;;5073115;28;20103;-69
2023/08/06 04:32:00;;;;;;;7.93;6.65;;;16.60;95.30;;;;;;5072833;28;20063;-69
2023/08/06 04:34:25;;;;;;;7.65;6.30;;;16.50;95.30;;;;;;5073042;28;20067;-69
2023/08/06 04:36:51;;;;;;;7.70;6.90;;;16.50;95.40;;;;;;5072765;28;20032;-69
2023/08/06 04:39:16;;;;;;;7.65;6.18;;;16.50;95.40;;;;;;5072376;28;20324;-69
2023/08/06 04:41:42;;;;;;;8.15;6.45;;;16.50;95.40;;;;;;5073004;28;20420;-69
2023/08/06 04:44:08;;;;;;;8.40;7.05;;;16.50;95.40;;;;;;5072497;28;20074;-70
2023/08/06 04:46:33;;;;;;;10.30;7.45;;;16.50;95.40;;;;;;5071433;28;20402;-69
2023/08/06 04:48:59;;;;;;;9.25;6.93;;;16.50;95.40;;;;;;5072893;28;20125;-70
2023/08/06 04:51:24;;;;;;;7.93;6.90;;;16.50;95.40;;;;;;5072744;28;20027;-69
2023/08/06 04:53:50;;;;;;;8.07;6.88;;;16.60;95.40;;;;;;5072586;28;20033;-69
2023/08/06 04:56:15;;;;;;;9.90;7.88;;;16.60;95.40;;;;;;5071162;28;20415;-69
2023/08/06 04:58:41;;;;;;;7.85;5.88;;;16.60;95.40;;;;;;5071151;28;20113;-69
2023/08/06 05:01:06;;;;;;;8.13;6.63;;;16.60;95.40;;;;;;5071094;28;20467;-69
2023/08/06 05:03:32;;;;;;;8.85;6.95;;;16.60;95.40;;;;;;5072637;28;20028;-69
2023/08/06 05:05:57;;;;;;;6.85;6.03;;;16.70;95.30;;;;;;5072240;28;20025;-69
2023/08/06 05:08:23;;;;;;;7.43;5.63;;;16.80;95.30;;;;;;5072361;28;20043;-69
2023/08/06 05:10:49;;;;;;;6.93;5.65;;;16.80;95.20;;;;;;5072316;28;20020;-69
2023/08/06 05:13:14;;;;;;;9.15;7.57;;;16.90;95.10;;;;;;5072787;28;20021;-69
2023/08/06 05:15:42;;;;;;;7.35;5.90;;;16.90;95.00;;;;;;5072275;28;20387;-69
2023/08/06 05:18:08;;;;;;;7.88;5.65;;;17.00;95.00;;;;;;5072537;28;20478;-69
2023/08/06 05:20:38;;;;;;;7.70;6.50;;;17.10;94.80;;;;;;5072073;28;20021;-69
2023/08/06 05:23:03;;;;;;;7.18;5.75;;;17.10;94.70;;;;;;5072244;28;20070;-69
2023/08/06 05:25:30;;;;;;;7.80;6.20;;;17.20;94.60;;;;;;5072040;28;20033;-69
2023/08/06 05:27:55;;;;;;;8.70;6.70;;;17.20;94.50;;;;;;5071926;28;20021;-69
2023/08/06 05:30:21;;;;;;;7.68;6.63;;;17.20;94.40;;;;;;5072110;28;20360;-69
2023/08/06 05:32:46;;;;;;;9.25;7.38;;;17.20;94.40;;;;;;5072031;28;20092;-69
2023/08/06 05:35:12;;;;;;;10.00;7.38;;;17.30;94.30;;;;;;5071828;28;20032;-69
2023/08/06 05:37:38;;;;;;;8.73;7.60;;;17.30;94.30;;;;;;5071580;28;20027;-71
2023/08/06 05:40:04;;;;;;;8.80;7.30;;;17.30;94.30;;;;;;5071936;28;20122;-69
2023/08/06 05:42:29;;;;;;;8.32;7.07;;;17.40;94.20;;;;;;5072077;28;20095;-70
2023/08/06 05:44:55;;;;;;;9.93;7.70;;;17.40;94.20;;;;;;5070439;28;20021;-69
2023/08/06 05:47:21;;;;;;;9.07;8.07;;;17.50;94.10;;;;;;5071727;28;20033;-70
2023/08/06 05:49:46;;;;;;;11.18;8.93;;;17.50;94.00;;;;;;5070842;28;20027;-70
2023/08/06 05:52:12;;;;;;;11.00;9.18;;;17.50;93.90;;;;;;5071514;28;20028;-70
2023/08/06 05:54:37;;;;;;;11.57;9.38;;;17.50;93.90;;;;;;5070065;28;20021;-70
2023/08/06 05:57:03;;;;;;;11.00;8.63;;;17.50;93.80;;;;;;5071452;28;20546;-69
2023/08/06 05:59:29;;;;;;;12.10;9.88;;;17.60;93.80;;;;;;5071442;28;20021;-70
2023/08/06 06:01:54;;;;;;;12.18;10.15;;;17.60;93.80;;;;;;5071575;28;20017;-71
2023/08/06 06:04:20;;;;;;;12.07;9.70;;;17.60;93.80;;;;;;5071258;28;20104;-70
2023/08/06 06:06:46;;;;;;;13.82;10.60;;;17.60;93.70;;;;;;5071253;28;20029;-70
2023/08/06 06:09:11;;;;;;;10.73;9.20;;;17.60;93.70;;;;;;5070059;28;20040;-70
2023/08/06 06:11:37;;;;;;;13.98;10.77;;;17.60;93.70;;;;;;5071542;28;20025;-70
2023/08/06 06:14:02;;;;;;;12.07;9.43;;;17.60;93.60;;;;;;5072054;28;20088;-70
2023/08/06 06:16:28;;;;;;;11.82;9.88;;;17.60;93.60;;;;;;5070053;28;20056;-70
2023/08/06 06:18:54;;;;;;;10.45;8.90;;;17.50;93.50;;;;;;5070030;28;20028;-71
2023/08/06 06:21:20;;;;;;;10.40;8.70;;;17.50;93.80;;;;;;5071011;28;20021;-70
2023/08/06 06:23:45;;;;;;;12.65;9.82;;;17.50;93.50;;;;;;5071285;28;20027;-71
2023/08/06 06:26:12;;;;;;;11.73;9.63;;;17.50;93.50;;;;;;5070676;28;20048;-70
2023/08/06 06:28:38;;;;;;;13.32;9.48;;;17.50;93.50;;;;;;5070973;28;20112;-71
2023/08/06 06:31:04;;;;;;;11.27;8.90;;;17.50;93.50;;;;;;5070637;28;20182;-70
2023/08/06 06:33:29;;;;;;;11.02;8.77;;;17.60;93.50;;;;;;5070943;28;20032;-70
2023/08/06 06:35:55;;;;;;;11.15;9.32;;;17.60;93.50;;;;;;5070595;28;20032;-70
2023/08/06 06:38:21;;;;;;;12.07;9.55;;;17.60;93.40;;;;;;5069255;28;20069;-69
2023/08/06 06:40:55;;;;;;;11.80;9.25;;;17.60;93.40;;;;;;5070447;28;20586;-70
2023/08/06 06:43:20;;;;;;;10.30;8.40;;;17.60;93.40;;;;;;5070626;28;20012;-70
2023/08/06 06:45:46;;;;;;;11.10;9.02;;;17.60;93.40;;;;;;5070477;28;20068;-70
2023/08/06 06:48:11;;;;;;;11.18;9.40;;;17.70;93.40;;;;;;5070334;28;20032;-70
2023/08/06 06:50:39;;;;;;;11.23;9.40;;;17.70;93.30;;;;;;5070526;28;20067;-70
2023/08/06 06:53:04;;;;;;;12.60;10.80;;;17.70;93.30;;;;;;5070110;28;20016;-70
2023/08/06 06:55:30;;;;;;;11.90;9.25;;;17.70;93.20;;;;;;5070281;28;20029;-70
2023/08/06 06:57:55;;;;;;;12.50;10.32;;;17.60;93.30;;;;;;5080717;28;20044;-69
2023/08/06 07:00:21;;;;;;;10.15;8.98;;;17.60;93.40;;;;;;5090441;28;20133;-69
2023/08/06 07:02:47;;;;;;;11.45;9.63;;;17.60;93.40;;;;;;5090530;28;20461;-70
2023/08/06 07:05:12;;;;;;;12.52;11.05;;;17.60;93.30;;;;;;5090112;28;20024;-70
2023/08/06 07:07:38;;;;;;;10.43;8.65;;;17.60;93.30;;;;;;5090308;28;20114;-70
2023/08/06 07:10:04;;;;;;;11.82;8.55;;;17.70;93.30;;;;;;5090705;28;20072;-70
2023/08/06 07:12:29;;;;;;;10.80;9.10;;;17.70;93.20;;;;;;5090294;28;20020;-70
2023/08/06 07:14:55;;;;;;;9.88;8.88;;;17.70;93.30;;;;;;5090230;28;20020;-69
2023/08/06 07:17:20;;;;;;;10.35;9.25;;;17.70;93.30;;;;;;5090115;28;20020;-69
2023/08/06 07:19:46;;;;;;;11.75;8.80;;;17.70;93.30;;;;;;5090166;28;20487;-69
2023/08/06 07:22:11;;;;;;;9.27;7.68;;;17.70;93.30;;;;;;5090216;28;20463;-69
2023/08/06 07:24:37;;;;;;;8.93;7.75;;;17.70;93.30;;;;;;5088715;28;20016;-70
2023/08/06 07:27:03;;;;;;;9.30;8.30;;;17.70;93.20;;;;;;5090668;28;20502;-69
2023/08/06 07:29:28;;;;;;;10.05;8.77;;;17.80;93.20;;;;;;5090221;28;20098;-69
2023/08/06 07:31:55;;;;;;;9.77;8.75;;;17.80;93.10;;;;;;5072155;28;20062;-69
2023/08/06 07:34:21;;;;;;;10.07;8.85;;;17.70;93.20;;;;;;5069694;28;20021;-69
2023/08/06 07:36:47;;;;;;;10.13;8.48;;;17.80;93.30;;;;;;5069321;28;20104;-68
2023/08/06 07:39:13;;;;;;;8.40;7.40;;;17.90;93.30;;;;;;5069793;28;20024;-68
2023/08/06 07:41:38;;;;;;;9.57;7.90;;;17.90;93.30;;;;;;5069745;28;20475;-68
2023/08/06 07:44:04;;;;;;;8.80;7.90;;;18.00;93.30;;;;;;5069927;28;20021;-68
2023/08/06 07:46:30;;;;;;;10.25;7.88;;;18.00;93.20;;;;;;5069620;28;20036;-68
2023/08/06 07:48:55;;;;;;;9.55;8.20;;;18.00;93.20;;;;;;5069850;28;20025;-69
2023/08/06 07:51:21;;;;;;;9.07;7.85;;;17.90;93.20;;;;;;5068566;28;20494;-68
2023/08/06 07:53:47;;;;;;;8.18;7.28;;;18.00;93.20;;;;;;5069494;28;20025;-69
2023/08/06 07:56:12;;;;;;;9.85;8.80;;;18.00;93.20;;;;;;5069862;28;20066;-69
2023/08/06 07:58:38;;;;;;;9.63;8.15;;;18.00;93.30;;;;;;5070037;28;20029;-68
2023/08/06 08:01:03;;;;;;;8.90;7.85;;;18.00;93.30;;;;;;5070218;28;20138;-69
2023/08/06 08:03:29;;;;;;;8.70;7.70;;;18.00;93.20;;;;;;5069590;28;20024;-68
2023/08/06 08:05:58;;;;;;;9.75;7.95;;;18.10;93.20;;;;;;5069864;28;20510;-69
2023/08/06 08:08:24;;;;;;;8.98;7.30;;;18.10;93.20;;;;;;5069531;28;20505;-69
2023/08/06 08:10:50;;;;;;;8.45;6.80;;;18.20;93.20;;;;;;5069811;28;20032;-69
2023/08/06 08:13:15;;;;;;;11.05;8.23;;;18.20;93.20;;;;;;5071122;28;20028;-69
2023/08/06 08:15:41;;;;;;;8.32;6.85;;;18.30;93.10;;;;;;5073788;28;20040;-71
2023/08/06 08:18:07;;;;;;;8.38;7.50;;;18.40;93.10;;;;;;5073487;28;20019;-69
2023/08/06 08:20:35;;;;;;;9.30;6.72;;;18.40;93.00;;;;;;5073145;28;20028;-68
2023/08/06 08:23:01;;;;;;;8.63;7.53;;;18.50;92.90;;;;;;5073421;28;20088;-69
2023/08/06 08:25:27;;;;;;;8.40;7.20;;;18.60;92.80;;;;;;5073212;28;20107;-69
2023/08/06 08:27:54;;;;;;;9.00;8.10;;;18.60;92.70;;;;;;5073296;28;20099;-70
2023/08/06 08:30:19;;;;;;;8.15;7.22;;;18.60;92.60;;;;;;5073315;28;20035;-70
2023/08/06 08:32:45;;;;;;;9.05;7.25;;;18.60;92.50;;;;;;5073404;28;20029;-69
2023/08/06 08:35:12;;;;;;;8.90;7.07;;;18.60;92.50;;;;;;5071569;28;20029;-70
2023/08/06 08:37:38;;;;;;;8.68;7.10;;;18.70;92.50;;;;;;5073312;28;20020;-69
2023/08/06 08:40:08;;;;;;;8.68;7.72;;;18.80;92.40;;;;;;5074143;28;20024;-71
2023/08/06 08:42:35;;;;;;;6.50;5.85;;;18.80;92.40;;;;;;5073586;28;20029;-70
2023/08/06 08:45:01;;;;;;;6.95;6.25;;;18.90;92.30;;;;;;5076366;28;20115;-67
2023/08/06 08:47:27;;;;;;;7.68;6.43;;;18.90;92.20;;;;;;5073409;28;20395;-68
2023/08/06 08:49:57;;;;;;;8.93;7.07;;;19.10;92.20;;;;;;5072812;28;20036;-68
2023/08/06 08:52:24;;;;;;;7.20;6.38;;;19.10;92.10;;;;;;5073316;28;20044;-68
2023/08/06 08:54:51;;;;;;;6.80;6.10;;;19.10;92.00;;;;;;5072931;28;20399;-69
2023/08/06 08:57:17;;;;;;;8.35;6.72;;;19.20;92.00;;;;;;5072428;28;20521;-69
2023/08/06 08:59:43;;;;;;;8.05;6.63;;;19.30;91.90;;;;;;5073409;28;20107;-69
2023/08/06 09:02:14;;;;;;;6.68;5.88;;;19.30;91.80;;;;;;5067193;28;20051;-69
2023/08/06 09:04:41;;;;;;;7.22;5.82;;;19.30;91.70;;;;;;5063703;28;20051;-69
2023/08/06 09:07:10;;;;;;;7.57;5.95;;;19.30;91.70;;;;;;5067213;28;20459;-69
2023/08/06 09:09:37;;;;;;;6.55;5.88;;;19.30;91.60;;;;;;5064991;28;20013;-72
2023/08/06 09:12:10;;;;;;;7.10;5.47;;;19.20;91.60;;;;;;5070726;28;20020;-69
2023/08/06 09:14:36;;;;;;;5.22;4.63;;;19.20;91.60;;;;;;5063486;28;20151;-69
2023/08/06 09:17:02;;;;;;;6.43;5.70;;;19.10;91.60;;;;;;5063679;28;20103;-69
2023/08/06 09:19:28;;;;;;;6.40;5.47;;;19.00;91.60;;;;;;5063072;28;20017;-69
2023/08/06 09:21:55;;;;;;;6.50;5.57;;;19.00;91.70;;;;;;5062045;28;20025;-69
2023/08/06 09:24:22;;;;;;;8.10;5.53;;;18.90;91.80;;;;;;5062173;28;20048;-70
2023/08/06 09:26:47;;;;;;;6.47;5.68;;;18.90;91.80;;;;;;5072584;28;20028;-70
2023/08/06 09:29:14;;;;;;;5.63;5.07;;;18.70;91.90;;;;;;5066628;28;20021;-70
2023/08/06 09:31:46;;;;;;;5.70;5.10;;;18.70;91.90;;;;;;5064192;28;20028;-68
2023/08/06 09:34:22;;;;;;;6.70;5.82;;;18.60;92.00;;;;;;5063623;28;20206;-68
2023/08/06 09:36:53;;;;;;;5.70;4.97;;;18.60;92.10;;;;;;5064059;28;20487;-69
2023/08/06 09:39:20;;;;;;;6.93;5.20;;;18.60;92.20;;;;;;5058926;28;20242;-68
2023/08/06 09:41:50;;;;;;;6.35;5.68;;;18.60;92.30;;;;;;5062957;28;20021;-68
2023/08/06 09:44:20;;;;;;;5.57;5.03;;;18.60;92.30;;;;;;5067450;28;20020;-70
2023/08/06 09:46:49;;;;;;;6.32;5.22;;;18.60;92.30;;;;;;5061818;28;20025;-70
2023/08/06 09:49:16;;;;;;;6.57;5.55;;;18.60;92.30;;;;;;5064654;28;20086;-70
2023/08/06 09:51:42;;;;;;;5.55;5.00;;;18.60;92.40;;;;;;5070079;28;20039;-71
2023/08/06 09:54:12;;;;;;;6.55;5.95;;;18.50;92.50;;;;;;5072306;28;20024;-71
2023/08/06 09:56:37;;;;;;;6.22;5.63;;;18.50;92.50;;;;;;5069283;28;20475;-70
2023/08/06 09:59:06;;;;;;;7.43;6.43;;;18.50;92.60;;;;;;5070861;28;20024;-70
2023/08/06 10:01:36;;;;;;;6.78;6.07;;;18.40;92.60;;;;;;5069580;28;20028;-69
2023/08/06 10:04:03;;;;;;;7.18;6.20;;;18.30;92.60;;;;;;5071388;28;20015;-71
2023/08/06 10:06:29;;;;;;;6.55;5.90;;;18.20;92.60;;;;;;5071783;28;20487;-71
2023/08/06 10:08:55;;;;;;;7.78;6.40;;;18.10;92.90;;;;;;5069090;28;20021;-70
2023/08/06 10:11:27;;;;;;;7.50;6.70;;;18.00;93.00;;;;;;5072238;28;20107;-72
2023/08/06 10:13:58;;;;;;;9.02;8.13;;;17.90;93.10;;;;;;5068284;28;20028;-71
2023/08/06 10:16:25;;;;;;;8.75;7.70;;;17.90;93.20;;;;;;5067997;28;20020;-71
2023/08/06 10:18:51;;;;;;;10.35;8.38;;;17.80;93.30;;;;;;5072030;28;20025;-71
2023/08/06 10:21:17;;;;;;;8.73;7.20;;;17.80;93.40;;;;;;5068423;28;20025;-71
2023/08/06 10:23:42;;;;;;;8.18;6.18;;;17.70;93.50;;;;;;5072499;28;20024;-71
2023/08/06 10:26:08;;;;;;;7.53;6.72;;;17.70;93.50;;;;;;5072271;28;20428;-71
2023/08/06 10:28:38;;;;;;;8.25;6.13;;;17.80;93.60;;;;;;5069270;28;20074;-70
2023/08/06 10:31:05;;;;;;;8.80;7.90;;;17.80;93.70;;;;;;5072652;28;20040;-71
2023/08/06 10:33:44;;;;;;;9.98;8.85;;;17.80;93.70;;;;;;5067760;28;20032;-70
2023/08/06 10:36:11;;;;;;;11.95;10.68;;;17.80;93.70;;;;;;5067454;28;20375;-71
2023/08/06 10:38:45;;;;;;;5.90;5.03;;;17.80;93.70;;;;;;5069293;28;20074;-71
2023/08/06 10:41:36;;;;;;;4.40;3.55;;;17.70;93.80;;;;;;5069525;28;20562;-71
2023/08/06 10:44:09;;;;;;;2.25;2.00;;;17.50;93.60;;;;;;5066848;28;20395;-71
2023/08/06 10:46:35;;;;;;;2.35;1.50;;;17.40;93.70;;;;;;5067411;28;20161;-71
2023/08/06 10:49:01;;;;;;;1.48;1.38;;;17.30;93.70;;;;;;5068686;28;20036;-71
2023/08/06 10:51:27;;;;;;;1.30;1.20;;;17.20;93.80;;;;;;5068739;28;20027;-70
2023/08/06 10:53:53;;;;;;;3.53;1.10;;;17.10;93.70;;;;;;5069374;28;20487;-70
2023/08/06 10:56:26;;;;;;;1.20;0.98;;;17.10;93.70;;;;;;5068501;28;20028;-70
2023/08/06 10:58:55;;;;;;;1.20;1.10;;;17.10;93.80;;;;;;5068352;28;20052;-70
2023/08/06 11:01:22;;;;;;;0.90;0.90;;;17.10;93.80;;;;;;5068176;28;20376;-70
2023/08/06 11:03:50;;;;;;;1.55;1.08;;;17.00;93.70;;;;;;5069659;28;20021;-70
2023/08/06 11:06:19;;;;;;;1.67;1.00;;;16.90;93.60;;;;;;5069942;28;20025;-70
2023/08/06 11:08:53;;;;;;;1.02;0.95;;;16.90;93.70;;;;;;5068386;28;20428;-69
2023/08/06 11:11:19;;;;;;;1.20;1.05;;;16.90;93.70;;;;;;5067099;28;20054;-70
2023/08/06 11:13:47;;;;;;;1.40;1.30;;;16.80;93.70;;;;;;5069158;28;20039;-70
2023/08/06 11:16:14;;;;;;;1.67;1.25;;;16.80;93.80;;;;;;5069059;28;20028;-69
2023/08/06 11:18:41;;;;;;;1.10;1.00;;;16.70;93.90;;;;;;5070601;28;20059;-70
2023/08/06 11:21:07;;;;;;;1.58;1.30;;;16.70;93.90;;;;;;5068414;28;20089;-70
2023/08/06 11:23:34;;;;;;;1.27;1.17;;;16.70;93.90;;;;;;5070991;28;20029;-70
2023/08/06 11:26:00;;;;;;;6.50;4.50;;;16.60;93.90;;;;;;5071140;28;20048;-69
2023/08/06 11:28:26;;;;;;;2.05;1.80;;;16.60;94.10;;;;;;5068974;28;20024;-70
2023/08/06 11:30:53;;;;;;;2.10;1.60;;;16.60;94.10;;;;;;5068047;28;20031;-70
2023/08/06 11:33:25;;;;;;;1.58;1.48;;;16.50;94.10;;;;;;5068423;28;20036;-71
2023/08/06 11:35:51;;;;;;;1.50;1.40;;;16.50;94.20;;;;;;5068582;28;20111;-70
2023/08/06 11:38:18;;;;;;;1.70;1.50;;;16.50;94.30;;;;;;5063780;28;20012;-70
2023/08/06 11:40:47;;;;;;;1.60;1.50;;;16.50;94.40;;;;;;5065039;28;20024;-70
2023/08/06 11:43:13;;;;;;;2.85;1.88;;;16.50;94.40;;;;;;5063968;28;20098;-70
2023/08/06 11:45:40;;;;;;;1.58;1.45;;;16.50;94.40;;;;;;5066035;28;20005;-70
2023/08/06 11:48:08;;;;;;;1.80;1.50;;;16.60;94.40;;;;;;5071555;28;20023;-71
2023/08/06 11:50:40;;;;;;;1.67;1.52;;;16.50;94.40;;;;;;5070755;28;20525;-71
2023/08/06 11:53:06;;;;;;;2.10;1.52;;;16.50;94.40;;;;;;5072419;28;20019;-70
2023/08/06 11:55:32;;;;;;;1.75;1.50;;;16.50;94.40;;;;;;5071512;28;20013;-70
2023/08/06 11:58:02;;;;;;;2.15;1.63;;;16.50;94.40;;;;;;5072206;28;20017;-70
2023/08/06 12:00:29;;;;;;;2.00;1.60;;;16.40;94.40;;;;;;5071914;28;20012;-70
2023/08/06 12:02:56;;;;;;;2.20;1.60;;;16.40;94.50;;;;;;5072051;28;20028;-70
2023/08/06 12:05:24;;;;;;;2.47;1.55;;;16.40;94.50;;;;;;5071278;28;20016;-70
2023/08/06 12:07:57;;;;;;;2.83;2.00;;;16.40;94.50;;;;;;5072557;28;20036;-70
2023/08/06 12:10:26;;;;;;;2.58;1.70;;;16.30;94.40;;;;;;5072822;28;20024;-70
2023/08/06 12:12:52;;;;;;;1.95;1.77;;;16.30;94.50;;;;;;5070809;28;20025;-70
2023/08/06 12:15:18;;;;;;;2.65;1.90;;;16.20;94.60;;;;;;5070430;28;20842;-70
2023/08/06 12:17:43;;;;;;;3.50;1.80;;;16.20;94.70;;;;;;5075517;28;20103;-71
2023/08/06 12:20:10;;;;;;;3.13;2.10;;;16.20;94.80;;;;;;5075834;28;20016;-71
2023/08/06 12:22:38;;;;;;;4.50;2.65;;;16.10;94.70;;;;;;5071395;28;20497;-70
2023/08/06 12:25:08;;;;;;;3.00;1.95;;;16.10;94.80;;;;;;5069806;28;20565;-70
2023/08/06 12:27:37;;;;;;;3.67;1.95;;;16.10;94.90;;;;;;5073604;28;20031;-70
2023/08/06 12:30:04;;;;;;;2.85;2.00;;;16.10;94.90;;;;;;5073702;28;20028;-70
2023/08/06 12:32:29;;;;;;;2.20;1.77;;;16.10;95.00;;;;;;5071368;28;20093;-70
2023/08/06 12:34:55;;;;;;;2.25;1.60;;;16.10;95.00;;;;;;5074189;28;20028;-70
2023/08/06 12:37:21;;;;;;;1.55;1.30;;;16.20;95.10;;;;;;5070095;28;20023;-70
2023/08/06 12:39:47;;;;;;;2.13;1.48;;;16.20;95.00;;;;;;5073358;28;20029;-71
2023/08/06 12:42:13;;;;;;;2.28;1.80;;;16.20;94.90;;;;;;5071200;28;20029;-75